Time;durP1;ratioP1;P1;durP2;ratioP2;P2;SDS_P1;SDS_P2;PMS_P1;PMS_P2;Temp;Humidity;BMP_temperature;BMP_pressure;BME280_temperature;BME280_humidity;BME280_pressure;Samples;Min_cycle;Max_cycle;Signal;HPM_P1;HPM_P2
2021/08/19 00:01:23;;;;;;;17.20;10.55;;;14.10;99.90;;;;;;4919678;29;20032;-95
2021/08/19 00:03:48;;;;;;;22.35;12.93;;;14.10;99.90;;;;;;4935567;29;20031;-95
2021/08/19 00:06:15;;;;;;;27.35;13.90;;;14.10;99.90;;;;;;4919787;29;20038;-93
2021/08/19 00:08:41;;;;;;;20.42;12.10;;;14.10;99.90;;;;;;4919909;29;20024;-93
2021/08/19 00:11:08;;;;;;;23.27;12.77;;;14.10;99.90;;;;;;4919639;29;20047;-94
2021/08/19 00:13:34;;;;;;;23.92;13.40;;;14.10;99.90;;;;;;4919695;29;20062;-92
2021/08/19 00:15:59;;;;;;;25.50;13.05;;;14.10;99.90;;;;;;4919680;29;20025;-94
2021/08/19 00:18:25;;;;;;;25.30;13.25;;;14.10;99.90;;;;;;4920746;29;20541;-93
2021/08/19 00:20:51;;;;;;;23.27;13.40;;;14.10;99.90;;;;;;4957852;29;20039;-94
2021/08/19 00:23:17;;;;;;;22.10;11.98;;;14.10;99.90;;;;;;4949093;29;20042;-94
2021/08/19 00:25:43;;;;;;;22.58;12.52;;;14.10;99.90;;;;;;4919390;29;20118;-93
2021/08/19 00:28:09;;;;;;;19.33;10.73;;;14.10;99.90;;;;;;4919510;29;20047;-93
2021/08/19 00:30:34;;;;;;;20.17;11.45;;;14.10;99.90;;;;;;4919901;29;20035;-93
2021/08/19 00:33:00;;;;;;;19.92;11.05;;;14.10;99.90;;;;;;4919787;29;20308;-93
2021/08/19 00:35:26;;;;;;;22.92;12.00;;;14.10;99.90;;;;;;4919547;29;20047;-93
2021/08/19 00:37:51;;;;;;;17.63;10.82;;;14.10;99.90;;;;;;4935417;29;20035;-95
2021/08/19 00:40:17;;;;;;;20.50;11.40;;;14.10;99.90;;;;;;4919861;29;20059;-93
2021/08/19 00:42:43;;;;;;;19.05;10.13;;;14.10;99.90;;;;;;4919498;29;20062;-93
2021/08/19 00:45:09;;;;;;;15.50;8.93;;;14.10;99.90;;;;;;4919529;29;20050;-93
2021/08/19 00:47:38;;;;;;;16.02;8.85;;;14.10;99.90;;;;;;4919380;29;20095;-94
2021/08/19 00:50:04;;;;;;;13.60;8.05;;;14.10;99.90;;;;;;4920169;29;20031;-94
2021/08/19 00:52:32;;;;;;;12.48;7.30;;;14.10;99.90;;;;;;4920159;29;20532;-94
2021/08/19 00:54:58;;;;;;;11.88;6.53;;;14.10;99.90;;;;;;4919293;29;20032;-93
2021/08/19 00:57:24;;;;;;;10.93;6.88;;;14.10;99.90;;;;;;4919199;29;20036;-93
2021/08/19 00:59:52;;;;;;;11.15;6.85;;;14.10;99.90;;;;;;4919058;29;20512;-93
2021/08/19 01:02:22;;;;;;;12.88;8.45;;;14.10;99.90;;;;;;4922570;29;20023;-94
2021/08/19 01:04:48;;;;;;;13.85;8.40;;;14.10;99.90;;;;;;4922626;29;20031;-93
2021/08/19 01:07:17;;;;;;;15.95;8.80;;;14.10;99.90;;;;;;4922782;29;20374;-95
2021/08/19 01:09:43;;;;;;;14.93;9.23;;;14.10;99.90;;;;;;4922917;29;20031;-94
2021/08/19 01:12:12;;;;;;;15.07;8.32;;;14.10;99.90;;;;;;4922480;29;20489;-94
2021/08/19 01:14:38;;;;;;;14.82;8.75;;;14.10;99.90;;;;;;4922698;29;20032;-93
2021/08/19 01:17:14;;;;;;;14.73;8.45;;;14.10;99.90;;;;;;4922702;29;20095;-93
2021/08/19 01:19:48;;;;;;;14.60;9.50;;;14.10;99.90;;;;;;4922621;29;20036;-94
2021/08/19 01:22:15;;;;;;;15.05;9.20;;;14.10;99.90;;;;;;4922448;29;20157;-94
2021/08/19 01:24:42;;;;;;;16.10;8.80;;;14.10;99.90;;;;;;4922145;29;20032;-94
2021/08/19 01:27:15;;;;;;;14.13;8.05;;;14.10;99.90;;;;;;4921863;29;20173;-94
2021/08/19 01:29:46;;;;;;;13.70;8.30;;;14.10;99.90;;;;;;4922351;29;20040;-94
2021/08/19 01:32:12;;;;;;;12.57;8.10;;;14.10;99.90;;;;;;4922272;29;20067;-94
2021/08/19 01:34:40;;;;;;;15.10;7.10;;;14.10;99.90;;;;;;4922193;29;20559;-94
2021/08/19 01:37:06;;;;;;;11.18;7.13;;;14.10;99.90;;;;;;4922020;29;20477;-94
2021/08/19 01:39:33;;;;;;;10.88;6.30;;;14.00;99.90;;;;;;4921873;29;20047;-95
2021/08/19 01:41:58;;;;;;;9.70;5.68;;;14.10;99.90;;;;;;4921984;29;20114;-94
2021/08/19 01:44:24;;;;;;;8.98;5.43;;;14.10;99.90;;;;;;4922133;29;20066;-93
2021/08/19 01:46:54;;;;;;;7.13;5.25;;;14.00;99.90;;;;;;4922045;29;20481;-94
2021/08/19 01:49:20;;;;;;;11.18;5.47;;;14.00;99.90;;;;;;4921815;29;20053;-94
2021/08/19 01:51:45;;;;;;;8.13;4.57;;;14.10;99.90;;;;;;4921997;29;20024;-95
2021/08/19 01:54:11;;;;;;;8.50;4.00;;;14.00;99.90;;;;;;4921778;29;20040;-95
2021/08/19 01:56:37;;;;;;;5.95;4.10;;;14.00;99.90;;;;;;4922131;29;20024;-94
2021/08/19 01:59:03;;;;;;;6.40;3.28;;;14.00;99.90;;;;;;4922150;29;20035;-95
2021/08/19 02:01:28;;;;;;;5.72;4.07;;;14.00;99.90;;;;;;4923412;29;20474;-94
2021/08/19 02:03:55;;;;;;;7.10;3.53;;;14.00;99.90;;;;;;4944932;29;20038;-96
2021/08/19 02:06:21;;;;;;;5.88;3.15;;;14.00;99.90;;;;;;4944743;29;20024;-94
2021/08/19 02:08:47;;;;;;;6.30;3.40;;;14.00;99.90;;;;;;4925961;29;20051;-95
2021/08/19 02:11:13;;;;;;;2.88;2.30;;;14.00;99.90;;;;;;4921811;29;20031;-94
2021/08/19 02:13:39;;;;;;;3.97;2.50;;;14.00;99.90;;;;;;4920715;29;20043;-95
2021/08/19 02:21:43;;;;;;;7.03;3.00;;;14.00;99.90;;;;;;5046130;23;20065;-93
2021/08/19 02:24:12;;;;;;;7.70;3.70;;;14.00;99.90;;;;;;4961564;29;20020;-95
2021/08/19 02:26:38;;;;;;;6.63;3.90;;;14.00;99.90;;;;;;4945793;29;20028;-96
2021/08/19 02:29:06;;;;;;;6.72;3.42;;;14.00;99.90;;;;;;4945804;29;20012;-96
2021/08/19 02:31:40;;;;;;;7.38;4.43;;;14.00;99.90;;;;;;4945884;29;20034;-96
2021/08/19 02:34:12;;;;;;;5.97;3.83;;;14.00;99.90;;;;;;4944124;29;20059;-95
2021/08/19 02:36:39;;;;;;;6.60;4.05;;;14.00;99.90;;;;;;4942872;29;20012;-96
2021/08/19 02:39:10;;;;;;;4.63;3.40;;;14.00;99.90;;;;;;4941907;29;20031;-96
2021/08/19 02:41:35;;;;;;;;;;;14.00;99.90;;;;;;4941023;29;20095;-95
2021/08/19 02:44:09;;;;;;;6.07;4.20;;;14.00;99.90;;;;;;4938213;29;19910;-95
2021/08/19 02:46:35;;;;;;;4.72;3.38;;;14.00;99.90;;;;;;4937038;29;20036;-96
2021/08/19 02:49:03;;;;;;;9.35;5.18;;;14.00;99.90;;;;;;4938345;29;20024;-96
2021/08/19 02:51:43;;;;;;;7.45;5.40;;;14.00;99.90;;;;;;4937572;29;20031;-96
2021/08/19 02:54:16;;;;;;;10.13;6.03;;;14.00;99.90;;;;;;4940334;29;20019;-95
2021/08/19 03:06:26;;;;;;;9.27;6.07;;;14.00;99.90;;;;;;5045188;23;20055;-96
2021/08/19 03:09:21;;;;;;;8.45;6.00;;;14.00;99.90;;;;;;4901732;29;20049;-96
2021/08/19 03:12:33;;;;;;;;;;;;;;;;;;;;;
2021/08/19 03:19:06;;;;;;;7.73;5.40;;;13.90;99.90;;;;;;4828689;29;20018;-96
2021/08/19 03:21:59;;;;;;;;;;;;;;;;;;;;;
2021/08/19 03:24:42;;;;;;;9.77;4.43;;;13.90;99.90;;;;;;4827646;29;20027;-95
2021/08/19 03:27:11;;;;;;;5.72;4.50;;;13.90;99.90;;;;;;4823550;29;20051;-95
2021/08/19 03:32:54;;;;;;;5.22;4.10;;;13.90;99.90;;;;;;4830059;29;20014;-96
2021/08/19 03:35:42;;;;;;;5.70;4.35;;;13.90;99.90;;;;;;4863143;29;20037;-95
2021/08/19 03:38:12;;;;;;;6.47;3.45;;;13.90;99.90;;;;;;4880425;29;20046;-96
2021/08/19 03:41:17;;;;;;;7.53;4.40;;;13.90;99.90;;;;;;4865358;29;20069;-96
2021/08/19 03:44:01;;;;;;;7.55;4.88;;;13.90;99.90;;;;;;4882575;29;20116;-95
2021/08/19 03:46:56;;;;;;;8.32;5.47;;;13.90;99.90;;;;;;4868532;29;20038;-96
2021/08/19 03:49:48;;;;;;;11.48;6.40;;;13.90;99.90;;;;;;4878159;29;20075;-95
2021/08/19 03:52:24;;;;;;;13.38;7.45;;;13.90;99.90;;;;;;4911352;29;20048;-96
2021/08/19 03:55:05;;;;;;;8.73;6.13;;;13.90;99.90;;;;;;4937778;29;20103;-96
2021/08/19 04:00:34;;;;;;;8.77;6.47;;;13.90;99.90;;;;;;4939447;29;20052;-94
2021/08/19 04:03:00;;;;;;;13.45;7.35;;;13.80;99.90;;;;;;4939161;29;20012;-95
2021/08/19 04:08:45;;;;;;;14.82;8.77;;;13.80;99.90;;;;;;4911908;29;20043;-96
2021/08/19 04:11:11;;;;;;;13.45;8.25;;;13.80;99.90;;;;;;4936744;29;20032;-96
2021/08/19 04:13:40;;;;;;;12.82;8.25;;;13.80;99.90;;;;;;4943530;29;20031;-95
2021/08/19 04:16:07;;;;;;;15.32;8.20;;;13.90;99.90;;;;;;4942299;29;20063;-95
2021/08/19 04:18:45;;;;;;;16.52;9.73;;;13.80;99.90;;;;;;4931291;29;20288;-94
2021/08/19 04:21:14;;;;;;;18.38;9.20;;;13.80;99.90;;;;;;4925239;29;20046;-96
2021/08/19 04:23:43;;;;;;;16.15;10.15;;;13.80;99.90;;;;;;4925580;29;20079;-95
2021/08/19 04:26:10;;;;;;;16.55;8.93;;;13.80;99.90;;;;;;4925753;29;20398;-95
2021/08/19 04:32:34;;;;;;;13.40;8.68;;;13.70;99.90;;;;;;4864222;29;20057;-96
2021/08/19 04:35:47;;;;;;;;;;;;;;;;;;;;;
2021/08/19 04:49:05;;;;;;;12.23;7.88;;;13.70;99.90;;;;;;4866017;29;20098;-96
2021/08/19 04:55:36;;;;;;;17.27;9.00;;;13.70;99.90;;;;;;4865978;29;20456;-95
2021/08/19 04:58:30;;;;;;;16.52;8.65;;;13.70;99.90;;;;;;4859167;29;20309;-95
2021/08/19 05:01:30;;;;;;;;;;;;;;;;;;;;;
2021/08/19 05:04:05;;;;;;;14.15;9.48;;;13.70;99.90;;;;;;4864659;29;20057;-95
2021/08/19 05:09:59;;;;;;;17.58;10.43;;;13.70;99.90;;;;;;4872990;29;20576;-96
2021/08/19 05:21:34;;;;;;;16.70;10.02;;;13.70;99.90;;;;;;4930381;29;20056;-94
2021/08/19 05:24:21;;;;;;;13.45;9.40;;;13.70;99.90;;;;;;4923474;29;20066;-95
2021/08/19 05:27:11;;;;;;;;;;;;;;;;;;;;;
2021/08/19 05:29:41;;;;;;;19.58;12.75;;;13.80;99.90;;;;;;4932334;29;20043;-95
2021/08/19 05:32:19;;;;;;;22.05;14.05;;;13.80;99.90;;;;;;4922870;29;20047;-95
2021/08/19 05:34:59;;;;;;;21.95;14.23;;;13.80;99.90;;;;;;4923259;29;20071;-94
2021/08/19 05:37:27;;;;;;;19.25;13.07;;;13.80;99.90;;;;;;4908727;29;20032;-95
2021/08/19 05:40:04;;;;;;;21.52;14.35;;;13.80;99.90;;;;;;4923338;29;20036;-95
2021/08/19 05:42:30;;;;;;;21.63;14.02;;;13.80;99.90;;;;;;4923069;29;20437;-95
2021/08/19 05:44:56;;;;;;;23.27;14.93;;;13.80;99.90;;;;;;4923484;29;20541;-94
2021/08/19 05:47:37;;;;;;;22.63;14.88;;;13.80;99.90;;;;;;4923031;29;20031;-94
2021/08/19 05:50:09;;;;;;;;;;;13.80;99.90;;;;;;4923413;29;20032;-95
2021/08/19 05:52:36;;;;;;;15.05;10.68;;;13.80;99.90;;;;;;4922942;29;19907;-94
2021/08/19 05:57:28;;;;;;;25.02;14.75;;;13.90;99.90;;;;;;5393627;23;21537;-96
2021/08/19 05:59:54;;;;;;;22.75;14.55;;;13.80;99.90;;;;;;4970628;28;20039;-96
2021/08/19 06:02:19;;;;;;;20.73;15.05;;;13.80;99.90;;;;;;4971470;28;20107;-96
2021/08/19 06:04:45;;;;;;;21.65;14.85;;;13.80;99.90;;;;;;4969800;28;20059;-95
2021/08/19 06:07:11;;;;;;;21.20;14.10;;;13.80;99.90;;;;;;4969824;28;20042;-96
2021/08/19 06:09:37;;;;;;;22.35;14.68;;;13.90;99.90;;;;;;4968571;28;20031;-96
2021/08/19 06:12:04;;;;;;;16.88;10.80;;;13.90;99.90;;;;;;4972198;28;20094;-96
2021/08/19 06:14:33;;;;;;;19.88;14.07;;;13.90;99.90;;;;;;4985108;28;20023;-95
2021/08/19 06:16:59;;;;;;;21.30;13.70;;;13.90;99.90;;;;;;4969416;28;20042;-96
2021/08/19 06:19:25;;;;;;;21.67;14.10;;;14.00;99.90;;;;;;4966537;28;20035;-96
2021/08/19 06:21:55;;;;;;;18.95;13.23;;;14.00;99.90;;;;;;4966486;28;20027;-96
2021/08/19 06:24:24;;;;;;;21.57;14.13;;;14.00;99.90;;;;;;4978019;28;20095;-96
2021/08/19 06:26:51;;;;;;;19.45;13.95;;;14.10;99.90;;;;;;4976320;28;20368;-96
2021/08/19 06:29:17;;;;;;;20.65;14.48;;;14.10;99.90;;;;;;4974500;28;20031;-96
2021/08/19 06:31:43;;;;;;;20.05;14.00;;;14.10;99.90;;;;;;4973530;28;20046;-96
2021/08/19 06:34:09;;;;;;;24.55;14.23;;;14.20;99.90;;;;;;4972102;28;20030;-96
2021/08/19 06:36:36;;;;;;;18.65;13.18;;;14.20;99.90;;;;;;4972187;28;20046;-96
2021/08/19 06:39:04;;;;;;;17.65;13.38;;;14.20;99.90;;;;;;4974437;28;20034;-96
2021/08/19 06:41:32;;;;;;;17.52;12.00;;;14.20;99.90;;;;;;4973769;28;20039;-96
2021/08/19 06:44:00;;;;;;;17.65;12.57;;;14.20;99.90;;;;;;4977669;28;20031;-96
2021/08/19 06:46:32;;;;;;;15.82;11.50;;;14.30;99.90;;;;;;4945834;28;20041;-95
2021/08/19 06:48:59;;;;;;;14.38;10.60;;;14.30;99.90;;;;;;4974027;28;20026;-96
2021/08/19 06:51:30;;;;;;;15.82;10.32;;;14.30;99.90;;;;;;4942147;29;20122;-96
2021/08/19 06:53:56;;;;;;;16.45;11.45;;;14.30;99.90;;;;;;4956065;29;20054;-96
2021/08/19 06:56:27;;;;;;;16.48;10.77;;;14.40;99.90;;;;;;4966862;29;20059;-96
2021/08/19 06:58:53;;;;;;;14.18;10.32;;;14.40;99.90;;;;;;4931678;29;20051;-96
2021/08/19 07:01:18;;;;;;;13.35;9.05;;;14.50;99.90;;;;;;5147308;23;20036;-95
2021/08/19 07:03:44;;;;;;;15.10;9.35;;;14.60;99.90;;;;;;4893045;29;20032;-96
2021/08/19 07:06:12;;;;;;;11.48;7.78;;;14.60;99.90;;;;;;4891442;29;20111;-96
2021/08/19 07:08:38;;;;;;;14.10;8.20;;;14.70;99.90;;;;;;4890331;29;20035;-96
2021/08/19 07:11:04;;;;;;;10.60;7.63;;;14.70;99.90;;;;;;4890491;29;20033;-96
2021/08/19 07:13:30;;;;;;;12.63;8.20;;;14.90;99.90;;;;;;4893333;29;20382;-95
2021/08/19 07:15:56;;;;;;;14.73;8.07;;;15.00;99.90;;;;;;4899084;29;20100;-96
2021/08/19 07:18:23;;;;;;;12.73;8.23;;;15.10;99.90;;;;;;5178962;23;20047;-96
2021/08/19 07:20:49;;;;;;;11.38;7.57;;;15.10;99.90;;;;;;4962229;29;20058;-95
2021/08/19 07:23:15;;;;;;;11.95;7.45;;;15.20;99.90;;;;;;4947297;29;20027;-95
2021/08/19 07:28:33;;;;;;;8.63;6.45;;;15.40;99.90;;;;;;5737721;23;21168;-96
2021/08/19 07:31:16;;;;;;;10.60;7.47;;;15.50;99.90;;;;;;4931957;29;20143;-95
2021/08/19 07:33:42;;;;;;;9.85;6.57;;;15.60;99.90;;;;;;4921197;29;20032;-96
2021/08/19 07:36:12;;;;;;;9.30;5.68;;;15.70;99.90;;;;;;4921093;29;20032;-96
2021/08/19 07:39:04;;;;;;;10.65;5.22;;;15.80;99.90;;;;;;4921719;29;20056;-96
2021/08/19 07:41:32;;;;;;;9.07;4.55;;;15.80;99.90;;;;;;4931307;29;20036;-96
2021/08/19 07:44:02;;;;;;;7.15;4.47;;;15.90;99.90;;;;;;4895967;29;20379;-95
2021/08/19 07:47:19;;;;;;;7.32;4.43;;;15.90;99.90;;;;;;4898811;29;20067;-96
2021/08/19 07:49:47;;;;;;;6.28;3.47;;;16.00;99.90;;;;;;4989507;23;20074;-96
2021/08/19 07:52:13;;;;;;;6.93;3.78;;;16.00;99.90;;;;;;5144361;23;20504;-96
2021/08/19 07:54:39;;;;;;;8.35;3.95;;;16.00;99.90;;;;;;4951265;29;20042;-96
2021/08/19 07:59:40;;;;;;;6.88;3.65;;;16.00;99.90;;;;;;5000864;23;20043;-96
2021/08/19 08:04:39;;;;;;;7.32;3.47;;;16.00;99.90;;;;;;4891274;29;20053;-96
2021/08/19 08:07:06;;;;;;;7.90;3.97;;;16.00;99.90;;;;;;5119796;23;20042;-96
2021/08/19 08:09:33;;;;;;;11.52;5.00;;;16.00;99.90;;;;;;4942500;29;20044;-96
2021/08/19 08:11:59;;;;;;;5.75;3.35;;;16.00;99.90;;;;;;4937036;29;20489;-96
2021/08/19 08:14:26;;;;;;;6.68;4.32;;;16.00;99.90;;;;;;4935186;29;20542;-96
2021/08/19 08:16:59;;;;;;;9.00;4.60;;;16.00;99.90;;;;;;4916924;29;20031;-96
2021/08/19 08:19:25;;;;;;;8.90;4.80;;;16.00;99.90;;;;;;4935243;29;20040;-96
2021/08/19 08:21:54;;;;;;;8.45;4.72;;;15.90;99.90;;;;;;4939926;29;20071;-96
2021/08/19 08:24:36;;;;;;;6.03;3.70;;;15.90;99.90;;;;;;4925094;29;20031;-95
2021/08/19 08:27:47;;;;;;;8.20;4.63;;;15.90;99.90;;;;;;4929248;29;20020;-96
2021/08/19 08:30:27;;;;;;;7.35;4.15;;;15.90;99.90;;;;;;4940882;29;20063;-96
2021/08/19 08:32:55;;;;;;;7.93;4.30;;;16.00;99.90;;;;;;4933134;29;20047;-96
2021/08/19 08:35:21;;;;;;;9.05;4.43;;;16.00;99.90;;;;;;4928791;29;20390;-95
2021/08/19 08:37:49;;;;;;;8.38;3.97;;;16.00;99.90;;;;;;4938234;29;20497;-96
2021/08/19 08:40:18;;;;;;;6.13;4.03;;;16.00;99.90;;;;;;4927256;29;20055;-96
2021/08/19 08:42:46;;;;;;;9.82;4.68;;;16.10;99.90;;;;;;4937990;29;20036;-95
2021/08/19 08:45:22;;;;;;;8.45;5.32;;;16.10;99.90;;;;;;4940213;29;20043;-96
2021/08/19 08:47:48;;;;;;;8.30;4.05;;;16.30;99.90;;;;;;4906784;29;20091;-96
2021/08/19 08:50:15;;;;;;;8.43;4.13;;;16.40;99.90;;;;;;4944696;29;20437;-96
2021/08/19 08:52:43;;;;;;;7.43;3.15;;;16.50;99.90;;;;;;4948384;29;20023;-96
2021/08/19 08:55:10;;;;;;;8.10;3.45;;;16.50;99.90;;;;;;4948964;29;20027;-96
2021/08/19 08:57:37;;;;;;;6.72;3.70;;;16.50;99.90;;;;;;4953990;29;20023;-96
2021/08/19 09:00:07;;;;;;;6.00;3.20;;;16.50;99.90;;;;;;4951513;29;20107;-95
2021/08/19 09:08:53;;;;;;;6.75;3.47;;;16.80;99.90;;;;;;4983039;28;20046;-95
2021/08/19 09:11:19;;;;;;;6.95;3.92;;;17.10;99.90;;;;;;4941624;29;20028;-95
2021/08/19 09:13:45;;;;;;;6.10;3.28;;;17.30;99.90;;;;;;4949421;29;20019;-96
2021/08/19 09:16:17;;;;;;;5.80;3.55;;;17.60;99.90;;;;;;4954978;29;20038;-96
2021/08/19 09:18:43;;;;;;;5.18;2.72;;;17.80;99.90;;;;;;5134807;23;20055;-96
2021/08/19 09:21:24;;;;;;;7.88;3.08;;;17.90;99.00;;;;;;4930601;28;20039;-95
2021/08/19 09:24:08;;;;;;;;;;;18.00;98.60;;;;;;4950420;29;20027;-96
2021/08/19 09:26:34;;;;;;;6.78;2.97;;;18.10;98.60;;;;;;4947162;29;20008;-96
2021/08/19 09:29:25;;;;;;;7.97;3.20;;;18.10;98.50;;;;;;4947549;29;20073;-95
2021/08/19 09:31:56;;;;;;;7.20;3.45;;;18.10;98.40;;;;;;4946723;29;20122;-96
2021/08/19 09:34:23;;;;;;;8.30;3.00;;;18.10;98.10;;;;;;4945121;29;20031;-95
2021/08/19 09:37:03;;;;;;;5.57;3.17;;;18.10;97.80;;;;;;4949320;29;20043;-95
2021/08/19 09:39:40;;;;;;;6.78;3.13;;;18.00;97.00;;;;;;4945804;29;20035;-95
2021/08/19 09:42:08;;;;;;;8.30;3.03;;;18.00;97.00;;;;;;4948564;29;20047;-96
2021/08/19 09:44:37;;;;;;;6.18;3.00;;;18.10;96.80;;;;;;4946759;29;20102;-95
2021/08/19 09:47:05;;;;;;;4.05;2.53;;;18.10;96.80;;;;;;4949336;29;20027;-96
2021/08/19 09:49:36;;;;;;;6.03;3.08;;;18.10;96.70;;;;;;4937417;29;20039;-95
2021/08/19 09:52:08;;;;;;;6.03;3.15;;;18.10;96.50;;;;;;4933334;29;20031;-96
2021/08/19 09:54:39;;;;;;;6.88;2.85;;;18.10;96.50;;;;;;4932642;29;20028;-95
2021/08/19 09:57:06;;;;;;;4.30;2.88;;;18.10;96.50;;;;;;4930602;29;20028;-96
2021/08/19 09:59:37;;;;;;;6.25;2.88;;;18.10;96.20;;;;;;4928001;29;20035;-96
2021/08/19 10:02:06;;;;;;;5.95;3.00;;;18.00;96.00;;;;;;4928787;29;20023;-96
2021/08/19 10:04:32;;;;;;;6.05;3.20;;;17.90;96.10;;;;;;4933841;29;20027;-95
2021/08/19 10:07:02;;;;;;;7.25;3.22;;;17.90;96.40;;;;;;4931959;29;20102;-96
2021/08/19 10:09:30;;;;;;;4.50;2.78;;;17.90;96.60;;;;;;4932756;29;20056;-96
2021/08/19 10:11:57;;;;;;;5.97;3.05;;;17.90;96.50;;;;;;4915060;29;20506;-96
2021/08/19 10:14:29;;;;;;;5.60;2.80;;;17.90;96.10;;;;;;4936678;29;20087;-96
2021/08/19 10:16:56;;;;;;;6.28;2.80;;;17.90;96.10;;;;;;4934097;29;20409;-96
2021/08/19 10:19:38;;;;;;;10.18;3.03;;;18.10;96.40;;;;;;4930135;29;20050;-96
2021/08/19 10:22:07;;;;;;;7.00;2.78;;;18.20;96.10;;;;;;4938183;29;20118;-96
2021/08/19 10:24:36;;;;;;;7.50;2.90;;;18.30;95.90;;;;;;4954171;29;20031;-96
2021/08/19 10:27:20;;;;;;;5.32;2.90;;;18.50;95.80;;;;;;4932808;29;20039;-96
2021/08/19 10:29:59;;;;;;;6.15;3.20;;;18.70;95.80;;;;;;4934475;29;20023;-96
2021/08/19 10:32:32;;;;;;;5.07;2.88;;;18.80;95.30;;;;;;4931285;29;20486;-96
2021/08/19 10:35:05;;;;;;;7.43;3.50;;;18.80;94.90;;;;;;4949547;29;20347;-96
2021/08/19 10:37:46;;;;;;;6.47;3.80;;;18.80;94.80;;;;;;4915290;29;20055;-96
2021/08/19 10:40:24;;;;;;;5.03;3.10;;;18.80;94.60;;;;;;4929697;29;20389;-96
2021/08/19 10:43:28;;;;;;;10.15;3.75;;;18.80;94.60;;;;;;4928250;29;20114;-96
2021/08/19 10:46:10;;;;;;;6.38;3.25;;;18.90;94.50;;;;;;4931298;29;20031;-96
2021/08/19 10:48:44;;;;;;;8.88;3.30;;;18.80;94.40;;;;;;4938225;29;20031;-96
2021/08/19 10:51:14;;;;;;;7.30;3.25;;;18.90;94.60;;;;;;4937634;29;20027;-96
2021/08/19 11:04:54;;;;;;;6.70;3.10;;;18.90;95.10;;;;;;1487679;23;20319;-96
2021/08/19 11:07:46;;;;;;;8.18;3.70;;;18.60;95.90;;;;;;4909700;29;20084;-96
2021/08/19 11:10:19;;;;;;;7.85;3.70;;;18.40;97.20;;;;;;5117585;23;20048;-96
2021/08/19 11:12:46;;;;;;;7.88;3.53;;;18.30;98.10;;;;;;4926799;29;20019;-95
2021/08/19 11:15:14;;;;;;;6.10;3.38;;;18.20;98.80;;;;;;4923576;29;20028;-96
2021/08/19 11:17:52;;;;;;;10.02;3.53;;;18.10;99.50;;;;;;4905502;29;20035;-95
2021/08/19 11:20:23;;;;;;;5.85;3.53;;;18.00;99.90;;;;;;4927971;29;20070;-95
2021/08/19 11:23:00;;;;;;;;;;;18.00;99.90;;;;;;4926540;29;20429;-95
2021/08/19 11:25:31;;;;;;;6.43;2.97;;;18.00;99.90;;;;;;4931561;29;19933;-96
2021/08/19 11:28:24;;;;;;;7.10;3.83;;;18.00;99.90;;;;;;4939696;29;20046;-96
2021/08/19 11:31:19;;;;;;;10.63;4.45;;;17.90;99.90;;;;;;5607651;23;20078;-95
2021/08/19 11:33:48;;;;;;;5.28;3.83;;;17.90;99.90;;;;;;5180781;23;20891;-96
2021/08/19 11:41:59;;;;;;;10.45;4.80;;;17.80;99.90;;;;;;4922994;29;20077;-95
2021/08/19 11:44:24;;;;;;;8.02;4.40;;;17.80;99.90;;;;;;4905144;29;20036;-95
2021/08/19 11:46:57;;;;;;;6.97;4.10;;;17.70;99.90;;;;;;4905303;29;20032;-96
2021/08/19 11:49:23;;;;;;;8.32;4.43;;;17.70;99.90;;;;;;4923706;29;20024;-95
2021/08/19 11:52:04;;;;;;;8.20;4.63;;;17.70;99.90;;;;;;4922840;29;20389;-96
2021/08/19 11:54:45;;;;;;;7.93;4.78;;;17.70;99.90;;;;;;4923132;29;20051;-95
2021/08/19 11:57:22;;;;;;;7.22;4.22;;;17.70;99.90;;;;;;4922087;29;20039;-96
2021/08/19 11:59:57;;;;;;;8.43;4.40;;;17.70;99.90;;;;;;4923081;29;20043;-95
2021/08/19 12:02:23;;;;;;;8.70;3.38;;;17.70;99.90;;;;;;4924484;29;20024;-96
2021/08/19 12:05:05;;;;;;;5.90;3.55;;;17.70;99.90;;;;;;4932994;29;20018;-96
2021/08/19 12:07:40;;;;;;;6.15;3.05;;;17.70;99.90;;;;;;5016326;23;20077;-96
2021/08/19 12:15:47;;;;;;;4.90;3.10;;;17.50;99.90;;;;;;5225112;23;20059;-95
2021/08/19 12:18:13;;;;;;;6.97;3.38;;;17.40;99.90;;;;;;4947324;29;20055;-95
2021/08/19 12:20:38;;;;;;;4.60;3.03;;;17.30;99.90;;;;;;4945297;29;20043;-95
2021/08/19 12:23:21;;;;;;;5.07;2.80;;;17.40;99.90;;;;;;4939291;29;20034;-96
2021/08/19 12:28:31;;;;;;;4.55;2.80;;;17.40;99.90;;;;;;5392009;23;20054;-96
2021/08/19 12:30:59;;;;;;;4.53;2.63;;;17.40;99.90;;;;;;4975669;28;20029;-94
2021/08/19 12:34:05;;;;;;;5.85;2.47;;;17.40;99.90;;;;;;4968914;28;20173;-95
2021/08/19 12:36:33;;;;;;;3.53;2.70;;;17.40;99.90;;;;;;4987798;28;20348;-96
2021/08/19 12:39:20;;;;;;;3.83;2.50;;;17.40;99.90;;;;;;4971116;28;20027;-96
2021/08/19 12:41:49;;;;;;;5.30;3.20;;;17.40;99.90;;;;;;4989288;28;20011;-96
2021/08/19 12:44:25;;;;;;;4.28;2.95;;;17.50;99.90;;;;;;4981801;28;20015;-96
2021/08/19 12:46:51;;;;;;;6.75;4.47;;;17.50;99.90;;;;;;4985369;28;20023;-95
2021/08/19 12:49:30;;;;;;;4.25;3.10;;;17.60;99.90;;;;;;4978714;28;20021;-96
2021/08/19 13:00:33;;;;;;;2.95;2.05;;;17.80;99.90;;;;;;5010181;23;20315;-96
2021/08/19 13:03:16;;;;;;;2.40;1.65;;;17.80;99.90;;;;;;4974776;29;20040;-96
2021/08/19 13:05:42;;;;;;;2.55;1.52;;;17.80;99.90;;;;;;4946333;29;20027;-96
2021/08/19 13:08:11;;;;;;;2.72;1.70;;;17.90;99.90;;;;;;4950182;29;20092;-96
2021/08/19 13:10:41;;;;;;;4.72;1.70;;;18.00;99.90;;;;;;4929225;29;20031;-96
2021/08/19 13:13:11;;;;;;;2.60;1.80;;;18.10;99.90;;;;;;4980803;28;20034;-95
2021/08/19 13:24:37;;;;;;;4.22;1.90;;;18.40;99.90;;;;;;5526694;23;20047;-96
2021/08/19 13:43:09;;;;;;;1.17;0.90;;;18.00;99.90;;;;;;5077061;23;19921;-96
2021/08/19 13:48:24;;;;;;;3.60;1.10;;;17.90;99.90;;;;;;5801686;23;20043;-96
2021/08/19 13:50:50;;;;;;;2.85;1.40;;;18.00;99.90;;;;;;4957594;29;20039;-95
2021/08/19 13:53:16;;;;;;;1.50;1.00;;;17.90;99.90;;;;;;4957481;29;20120;-95
2021/08/19 13:56:32;;;;;;;1.40;1.23;;;17.90;99.90;;;;;;4978813;28;20020;-96
2021/08/19 14:10:54;;;;;;;1.23;0.90;;;17.80;99.90;;;;;;5789444;23;20023;-96
2021/08/19 14:19:15;;;;;;;1.27;1.17;;;17.90;99.90;;;;;;5221433;23;20035;-96
2021/08/19 14:21:57;;;;;;;2.05;1.20;;;18.10;99.90;;;;;;4977849;29;20027;-96
2021/08/19 14:24:33;;;;;;;;;;;18.30;99.90;;;;;;4970387;29;20028;-95
2021/08/19 14:27:05;;;;;;;1.77;0.98;;;18.50;99.90;;;;;;4943144;29;19911;-96
2021/08/19 14:29:44;;;;;;;2.05;1.00;;;18.70;99.90;;;;;;5038084;23;20036;-95
2021/08/19 14:32:09;;;;;;;1.77;0.77;;;18.80;99.90;;;;;;4964628;29;20024;-96
2021/08/19 14:35:01;;;;;;;1.10;1.00;;;18.80;99.90;;;;;;4938674;29;20051;-96
2021/08/19 14:45:24;;;;;;;3.83;1.77;;;18.70;99.90;;;;;;5127117;23;20067;-96
2021/08/19 14:47:49;;;;;;;4.13;1.80;;;18.60;99.90;;;;;;4950134;29;20026;-96
2021/08/19 14:50:15;;;;;;;6.35;2.13;;;18.50;99.90;;;;;;4961878;23;20056;-95
2021/08/19 14:52:41;;;;;;;3.13;1.88;;;18.50;99.90;;;;;;4945991;29;20023;-96
2021/08/19 14:55:08;;;;;;;1.88;1.40;;;18.40;99.90;;;;;;4943450;29;20024;-96
2021/08/19 15:03:00;;;;;;;2.53;1.88;;;18.60;99.90;;;;;;4929239;29;20044;-96
2021/08/19 15:08:08;;;;;;;3.67;1.75;;;18.60;99.90;;;;;;5105799;23;20083;-96
2021/08/19 15:10:34;;;;;;;2.92;1.88;;;18.70;99.90;;;;;;5074397;23;20111;-96
2021/08/19 15:13:00;;;;;;;8.98;2.53;;;18.60;99.90;;;;;;4922772;29;20031;-95
2021/08/19 15:15:26;;;;;;;3.33;2.30;;;18.60;99.90;;;;;;4923582;29;20027;-96
2021/08/19 15:17:56;;;;;;;3.15;2.00;;;18.70;99.90;;;;;;4923914;29;20560;-96
2021/08/19 15:20:22;;;;;;;2.45;1.95;;;18.70;99.90;;;;;;4932435;29;20457;-96
2021/08/19 15:22:47;;;;;;;2.03;1.77;;;18.70;99.90;;;;;;4921939;29;20035;-95
2021/08/19 15:25:16;;;;;;;4.32;2.10;;;18.60;99.90;;;;;;4929222;29;20058;-96
2021/08/19 15:27:42;;;;;;;4.72;2.40;;;18.70;99.90;;;;;;4926071;29;20035;-96
2021/08/19 15:30:08;;;;;;;2.80;1.98;;;18.70;99.90;;;;;;4922495;29;20556;-94
2021/08/19 15:32:34;;;;;;;2.35;1.83;;;18.80;99.90;;;;;;4926174;29;20028;-96
2021/08/19 15:35:00;;;;;;;4.18;2.15;;;18.80;99.90;;;;;;4923842;29;20031;-96
2021/08/19 15:37:30;;;;;;;3.45;1.77;;;19.00;99.90;;;;;;4924828;29;20027;-96
2021/08/19 15:39:58;;;;;;;2.25;1.63;;;19.00;99.90;;;;;;4921498;29;20058;-95
2021/08/19 15:42:26;;;;;;;2.53;1.90;;;19.10;99.90;;;;;;4924654;29;20028;-96
2021/08/19 15:50:08;;;;;;;3.53;2.00;;;19.30;99.90;;;;;;4950111;29;20102;-96
2021/08/19 15:52:35;;;;;;;3.13;2.17;;;19.30;99.90;;;;;;4935311;29;20027;-96
2021/08/19 15:55:00;;;;;;;3.22;2.30;;;19.30;99.90;;;;;;4902569;29;20078;-96
2021/08/19 15:57:30;;;;;;;4.65;1.70;;;19.20;99.90;;;;;;4903450;29;20409;-96
2021/08/19 15:59:56;;;;;;;2.17;1.80;;;19.20;99.90;;;;;;4902569;29;20044;-95
2021/08/19 16:02:23;;;;;;;4.10;1.80;;;19.10;99.90;;;;;;4905794;29;20039;-95
2021/08/19 16:04:49;;;;;;;2.90;1.98;;;19.10;99.90;;;;;;4920102;29;20039;-95
2021/08/19 16:07:14;;;;;;;2.00;1.80;;;19.00;99.90;;;;;;4903279;29;20028;-95